Time;durP1;ratioP1;P1;durP2;ratioP2;P2;SDS_P1;SDS_P2;PMS_P1;PMS_P2;Temp;Humidity;BMP_temperature;BMP_pressure;BME280_temperature;BME280_humidity;BME280_pressure;Samples;Min_cycle;Max_cycle;Signal;HPM_P1;HPM_P2
2023/05/02 00:01:36;;;;;;;1.50;1.10;;;12.20;98.20;;;;;;5115587;28;20470;-78
2023/05/02 00:04:03;;;;;;;1.50;1.00;;;12.10;98.20;;;;;;5127087;28;20521;-79
2023/05/02 00:06:31;;;;;;;1.50;1.17;;;12.10;98.20;;;;;;5112583;28;20485;-79
2023/05/02 00:08:58;;;;;;;1.50;1.07;;;12.00;98.20;;;;;;5115035;28;20483;-78
2023/05/02 00:11:26;;;;;;;1.50;1.00;;;12.00;98.20;;;;;;5113171;28;20475;-79
2023/05/02 00:13:53;;;;;;;1.50;1.20;;;11.90;98.20;;;;;;5129137;28;20883;-79
2023/05/02 00:16:20;;;;;;;1.50;1.10;;;11.80;98.20;;;;;;5103010;28;20480;-80
2023/05/02 00:18:48;;;;;;;1.50;1.17;;;11.80;98.20;;;;;;5127422;28;20483;-79
2023/05/02 00:21:14;;;;;;;1.50;1.10;;;11.80;98.20;;;;;;5110423;28;20837;-79
2023/05/02 00:23:42;;;;;;;1.50;1.07;;;11.80;98.20;;;;;;5114000;28;20481;-78
2023/05/02 00:26:09;;;;;;;1.50;1.10;;;11.70;98.20;;;;;;5106356;28;20470;-78
2023/05/02 00:28:37;;;;;;;1.50;1.10;;;11.70;98.20;;;;;;5127361;28;20474;-79
2023/05/02 00:31:04;;;;;;;1.50;1.10;;;11.60;98.20;;;;;;5104300;28;20526;-78
2023/05/02 00:33:31;;;;;;;1.50;1.00;;;11.60;98.20;;;;;;5121657;28;20482;-78
2023/05/02 00:35:58;;;;;;;1.50;1.10;;;11.60;98.20;;;;;;5111186;28;20467;-78
2023/05/02 00:38:25;;;;;;;1.50;1.10;;;11.50;98.20;;;;;;5120415;28;20489;-79
2023/05/02 00:40:52;;;;;;;1.50;1.10;;;11.50;98.20;;;;;;5108474;28;20467;-79
2023/05/02 00:43:19;;;;;;;1.50;1.00;;;11.40;98.20;;;;;;5129488;28;20456;-78
2023/05/02 00:45:48;;;;;;;1.47;1.00;;;11.40;98.20;;;;;;5119256;27;20470;-79
2023/05/02 00:48:16;;;;;;;1.50;1.00;;;11.40;98.20;;;;;;5096251;28;20493;-78
2023/05/02 00:50:43;;;;;;;1.50;1.10;;;11.40;98.20;;;;;;5121626;27;20470;-79
2023/05/02 00:53:10;;;;;;;1.50;1.20;;;11.30;98.20;;;;;;5120401;27;20475;-78
2023/05/02 00:55:38;;;;;;;1.50;1.00;;;11.30;98.20;;;;;;5119240;27;20456;-78
2023/05/02 00:58:07;;;;;;;1.50;1.20;;;11.20;98.20;;;;;;5105208;27;20571;-78
2023/05/02 01:00:45;;;;;;;1.50;1.10;;;11.20;98.20;;;;;;5123845;27;20515;-78
2023/05/02 01:03:27;;;;;;;1.50;1.30;;;11.20;98.20;;;;;;5095452;27;20573;-78
2023/05/02 01:06:04;;;;;;;1.50;1.10;;;11.10;98.20;;;;;;5108817;27;20470;-80
2023/05/02 01:08:40;;;;;;;1.50;1.20;;;11.10;98.20;;;;;;5118529;27;21007;-79
2023/05/02 01:11:15;;;;;;;1.50;1.13;;;11.10;98.20;;;;;;5110994;27;21044;-78
2023/05/02 01:13:43;;;;;;;1.50;1.10;;;11.10;98.20;;;;;;5121487;27;20490;-78
2023/05/02 01:16:12;;;;;;;1.50;1.10;;;11.10;98.20;;;;;;5105430;27;20478;-81
2023/05/02 01:18:42;;;;;;;1.50;1.10;;;11.10;98.20;;;;;;5119588;27;20505;-77
2023/05/02 01:21:11;;;;;;;1.50;1.00;;;11.10;98.20;;;;;;5115903;27;20485;-77
2023/05/02 01:23:53;;;;;;;1.50;1.10;;;11.10;98.20;;;;;;5135334;27;20451;-80
2023/05/02 01:26:32;;;;;;;1.50;1.10;;;11.10;98.20;;;;;;5111801;27;20473;-78
2023/05/02 01:29:02;;;;;;;1.50;1.10;;;11.10;98.20;;;;;;5116646;27;20479;-79
2023/05/02 01:31:33;;;;;;;1.50;1.10;;;11.10;98.20;;;;;;5109911;27;20533;-78
2023/05/02 01:34:00;;;;;;;2.37;2.17;;;11.00;98.20;;;;;;5127220;27;20568;-79
2023/05/02 01:36:31;;;;;;;1.50;1.10;;;11.00;98.20;;;;;;5115309;27;20794;-77
2023/05/02 01:39:00;;;;;;;1.50;1.00;;;11.00;98.20;;;;;;5128923;27;20472;-78
2023/05/02 01:41:28;;;;;;;1.50;1.20;;;11.00;98.20;;;;;;5114895;27;20888;-77
2023/05/02 01:43:59;;;;;;;1.50;1.00;;;11.00;98.20;;;;;;5125409;27;20455;-77
2023/05/02 01:46:30;;;;;;;1.50;1.10;;;11.00;98.20;;;;;;5101166;28;20915;-79
2023/05/02 01:48:58;;;;;;;1.50;1.10;;;11.00;98.20;;;;;;5113646;28;20996;-79
2023/05/02 01:51:30;;;;;;;1.50;1.20;;;11.10;98.20;;;;;;5100175;28;20476;-79
2023/05/02 01:54:00;;;;;;;1.50;1.30;;;11.10;98.20;;;;;;5107579;28;20547;-78
2023/05/02 01:56:30;;;;;;;1.50;1.10;;;11.10;98.20;;;;;;5099696;28;20530;-78
2023/05/02 01:58:58;;;;;;;1.50;1.07;;;11.10;98.20;;;;;;5103516;28;20827;-78
2023/05/02 02:01:29;;;;;;;1.50;1.10;;;11.10;98.20;;;;;;5095863;28;20476;-76
2023/05/02 02:03:57;;;;;;;1.50;1.07;;;11.10;98.20;;;;;;5104993;28;20853;-76
2023/05/02 02:06:24;;;;;;;1.60;1.30;;;11.10;98.20;;;;;;5094549;28;20499;-75
2023/05/02 02:08:51;;;;;;;1.50;1.07;;;11.10;98.20;;;;;;5092614;28;20480;-76
2023/05/02 02:11:27;;;;;;;1.50;1.10;;;11.10;98.20;;;;;;5100256;27;20870;-76
2023/05/02 02:14:01;;;;;;;1.50;1.13;;;11.20;98.20;;;;;;5112185;27;20865;-76
2023/05/02 02:16:32;;;;;;;1.50;1.10;;;11.20;98.20;;;;;;5095173;28;20526;-76
2023/05/02 02:19:07;;;;;;;1.50;1.10;;;11.20;98.20;;;;;;5105937;28;20487;-76
2023/05/02 02:21:35;;;;;;;2.03;1.83;;;11.20;98.20;;;;;;5095772;28;20478;-76
2023/05/02 02:24:03;;;;;;;1.50;1.00;;;11.20;98.20;;;;;;5099978;28;20455;-76
2023/05/02 02:26:30;;;;;;;1.50;1.20;;;11.30;98.20;;;;;;5093352;28;20472;-76
2023/05/02 02:28:57;;;;;;;1.50;1.10;;;11.30;98.20;;;;;;5094171;28;20506;-76
2023/05/02 02:31:30;;;;;;;1.50;1.20;;;11.30;98.20;;;;;;5092869;28;20525;-75
2023/05/02 02:33:58;;;;;;;1.50;1.00;;;11.30;98.20;;;;;;5098562;28;20479;-76
2023/05/02 02:36:31;;;;;;;1.50;1.00;;;11.40;98.20;;;;;;5096856;28;20475;-76
2023/05/02 02:39:09;;;;;;;1.50;1.10;;;11.40;98.20;;;;;;5105351;28;20495;-76
2023/05/02 02:41:41;;;;;;;1.50;1.10;;;11.40;98.20;;;;;;5092643;28;20878;-76
2023/05/02 02:44:28;;;;;;;1.50;1.07;;;11.40;98.20;;;;;;5100752;28;20452;-76
2023/05/02 02:47:01;;;;;;;1.47;1.00;;;11.50;98.20;;;;;;5087728;28;20476;-76
2023/05/02 02:49:38;;;;;;;1.50;1.00;;;11.50;98.20;;;;;;5100694;28;20484;-76
2023/05/02 02:52:10;;;;;;;1.50;1.10;;;11.50;98.20;;;;;;5084220;28;20483;-76
2023/05/02 02:54:43;;;;;;;1.43;1.00;;;11.50;98.20;;;;;;5101128;28;20490;-76
2023/05/02 02:57:17;;;;;;;1.50;1.10;;;11.50;98.20;;;;;;5085112;28;20481;-77
2023/05/02 02:59:51;;;;;;;1.50;1.10;;;11.60;98.20;;;;;;5113536;28;20615;-79
2023/05/02 03:02:22;;;;;;;1.50;1.10;;;11.60;98.20;;;;;;5096829;28;20618;-79
2023/05/02 03:04:52;;;;;;;1.50;1.00;;;11.60;98.20;;;;;;5113093;28;20519;-79
2023/05/02 03:07:19;;;;;;;1.50;1.10;;;11.60;98.20;;;;;;5087527;28;20730;-77
2023/05/02 03:09:47;;;;;;;1.50;1.10;;;11.60;98.20;;;;;;5110773;28;20480;-79
2023/05/02 03:12:14;;;;;;;1.50;1.10;;;11.60;98.20;;;;;;5096254;28;20484;-78
2023/05/02 03:14:42;;;;;;;1.47;1.00;;;11.60;98.20;;;;;;5113680;28;20547;-80
2023/05/02 03:17:09;;;;;;;1.50;1.40;;;11.70;98.20;;;;;;5097612;27;20478;-79
2023/05/02 03:19:36;;;;;;;1.50;1.10;;;11.70;98.20;;;;;;5114887;27;20588;-79
2023/05/02 03:22:05;;;;;;;1.50;1.10;;;11.70;98.20;;;;;;5097027;28;20492;-78
2023/05/02 03:24:32;;;;;;;1.50;1.10;;;11.70;98.20;;;;;;5105726;28;20452;-79
2023/05/02 03:26:59;;;;;;;1.50;1.10;;;11.70;98.20;;;;;;5100135;28;20491;-79
2023/05/02 03:29:27;;;;;;;1.50;1.10;;;11.70;98.20;;;;;;5107201;28;20468;-79
2023/05/02 03:31:54;;;;;;;1.50;1.10;;;11.70;98.20;;;;;;5096806;28;20483;-80
2023/05/02 03:34:21;;;;;;;1.50;1.10;;;11.70;98.20;;;;;;5106646;28;20507;-78
2023/05/02 03:36:48;;;;;;;1.50;1.00;;;11.80;98.20;;;;;;5097510;28;20485;-77
2023/05/02 03:39:17;;;;;;;1.50;1.10;;;11.80;98.20;;;;;;5107402;28;20490;-79
2023/05/02 03:41:44;;;;;;;1.50;1.10;;;11.80;98.20;;;;;;5101457;28;20480;-80
2023/05/02 03:44:10;;;;;;;1.50;1.10;;;11.80;98.20;;;;;;5102291;28;20492;-79
2023/05/02 03:46:37;;;;;;;1.50;1.00;;;11.80;98.20;;;;;;5083814;28;20833;-79
2023/05/02 03:49:04;;;;;;;1.50;1.10;;;11.80;98.20;;;;;;5103318;28;20484;-80
2023/05/02 03:51:32;;;;;;;1.50;1.07;;;11.80;98.20;;;;;;5090019;28;20875;-78
2023/05/02 03:54:01;;;;;;;1.50;1.10;;;11.90;98.20;;;;;;5100719;28;20537;-78
2023/05/02 03:56:29;;;;;;;1.50;1.10;;;11.90;98.20;;;;;;5090771;28;20496;-79
2023/05/02 03:58:56;;;;;;;1.47;1.03;;;11.90;98.20;;;;;;5105429;28;20540;-78
2023/05/02 04:01:23;;;;;;;1.50;1.07;;;11.90;98.20;;;;;;5099997;28;20480;-78
2023/05/02 04:03:52;;;;;;;1.50;1.20;;;11.90;98.20;;;;;;5118851;28;20884;-79
2023/05/02 04:06:18;;;;;;;1.50;1.10;;;11.90;98.20;;;;;;5100146;28;20892;-77
2023/05/02 04:08:45;;;;;;;1.50;1.00;;;11.90;98.20;;;;;;5110400;28;20472;-80
2023/05/02 04:11:12;;;;;;;1.40;1.00;;;11.90;98.20;;;;;;5100536;28;20479;-80
2023/05/02 04:13:40;;;;;;;1.50;1.00;;;11.80;98.20;;;;;;5115609;28;20508;-79
2023/05/02 04:16:08;;;;;;;1.50;1.00;;;11.90;98.20;;;;;;5106491;28;20952;-78
2023/05/02 04:18:35;;;;;;;1.50;1.20;;;11.80;98.20;;;;;;5120930;28;20487;-79
2023/05/02 04:21:02;;;;;;;1.50;1.00;;;11.80;98.20;;;;;;5094267;27;20558;-77
2023/05/02 04:23:29;;;;;;;1.50;1.00;;;11.90;98.20;;;;;;5102915;27;20555;-80
2023/05/02 04:25:56;;;;;;;1.50;1.20;;;11.90;98.20;;;;;;5110151;27;21220;-80
2023/05/02 04:28:23;;;;;;;1.50;1.10;;;11.90;98.20;;;;;;5122220;27;20507;-80
2023/05/02 04:30:52;;;;;;;1.50;1.10;;;11.90;98.20;;;;;;5096367;28;20515;-81
2023/05/02 04:33:19;;;;;;;1.50;1.10;;;11.90;98.20;;;;;;5116069;27;20857;-80
2023/05/02 04:35:46;;;;;;;1.50;1.00;;;11.90;98.20;;;;;;5117710;27;20463;-80
2023/05/02 04:38:14;;;;;;;1.50;1.00;;;11.90;98.20;;;;;;5088474;27;20551;-79
2023/05/02 04:40:41;;;;;;;1.47;1.00;;;11.90;98.20;;;;;;5112367;27;20467;-79
2023/05/02 04:43:08;;;;;;;1.43;1.00;;;11.90;98.20;;;;;;5112539;27;20628;-79
2023/05/02 04:45:35;;;;;;;1.50;1.00;;;12.00;98.20;;;;;;5105805;27;20452;-79
2023/05/02 04:48:04;;;;;;;1.50;1.00;;;12.00;98.20;;;;;;5102439;27;20481;-80
2023/05/02 04:50:31;;;;;;;1.50;1.10;;;12.00;98.20;;;;;;5113130;28;20459;-80
2023/05/02 04:52:59;;;;;;;1.50;1.10;;;12.00;98.20;;;;;;5108983;27;20749;-78
2023/05/02 04:55:25;;;;;;;1.50;1.10;;;12.00;98.20;;;;;;5105436;27;20988;-79
2023/05/02 04:57:52;;;;;;;1.50;1.10;;;12.00;98.20;;;;;;5099014;27;20494;-80
2023/05/02 05:00:20;;;;;;;1.50;1.03;;;12.00;98.20;;;;;;5117026;27;20463;-80
2023/05/02 05:02:47;;;;;;;1.50;1.00;;;12.00;98.20;;;;;;5101313;28;20581;-79
2023/05/02 05:05:15;;;;;;;1.50;1.10;;;12.00;98.20;;;;;;5103339;27;20483;-77
2023/05/02 05:07:42;;;;;;;1.50;1.20;;;12.00;98.20;;;;;;5096370;27;20479;-79
2023/05/02 05:10:11;;;;;;;1.50;1.03;;;12.00;98.20;;;;;;5105290;28;20536;-77
2023/05/02 05:12:38;;;;;;;1.50;1.00;;;12.00;98.20;;;;;;5090848;27;20530;-81
2023/05/02 05:15:06;;;;;;;1.47;1.00;;;12.00;98.20;;;;;;5101927;28;21040;-78
2023/05/02 05:17:32;;;;;;;1.50;1.10;;;11.90;98.20;;;;;;5097370;27;20472;-79
2023/05/02 05:19:59;;;;;;;1.50;1.07;;;11.90;98.20;;;;;;5113877;27;20495;-81
2023/05/02 05:22:28;;;;;;;1.50;1.10;;;11.90;98.20;;;;;;5119447;27;20506;-79
2023/05/02 05:24:55;;;;;;;1.47;1.00;;;11.90;98.20;;;;;;5125099;27;20546;-81
2023/05/02 05:27:22;;;;;;;1.50;1.00;;;12.00;98.20;;;;;;5110545;27;20556;-80
2023/05/02 05:29:49;;;;;;;1.60;1.33;;;12.00;98.20;;;;;;5121303;27;20862;-82
2023/05/02 05:32:15;;;;;;;1.50;1.00;;;12.00;98.20;;;;;;5110517;27;20543;-81
2023/05/02 05:34:42;;;;;;;1.50;1.10;;;11.90;98.20;;;;;;5116314;27;20487;-80
2023/05/02 05:37:09;;;;;;;1.50;1.10;;;11.90;98.20;;;;;;5106028;27;20483;-79
2023/05/02 05:39:37;;;;;;;1.50;1.00;;;11.90;98.20;;;;;;5105251;27;20965;-79
2023/05/02 05:42:04;;;;;;;1.50;1.20;;;11.80;98.20;;;;;;5096416;27;20562;-79
2023/05/02 05:44:32;;;;;;;1.47;1.00;;;11.80;98.20;;;;;;5110372;27;20451;-81
2023/05/02 05:46:58;;;;;;;1.50;1.17;;;11.80;98.20;;;;;;5117294;27;20518;-77
2023/05/02 05:49:25;;;;;;;1.60;1.50;;;11.80;98.20;;;;;;5113035;27;20479;-81
2023/05/02 05:51:52;;;;;;;1.50;1.10;;;11.80;98.20;;;;;;5103836;27;20476;-81
2023/05/02 05:54:19;;;;;;;1.50;1.10;;;11.90;98.20;;;;;;5111690;28;20574;-80
2023/05/02 05:56:47;;;;;;;1.50;1.10;;;11.90;98.20;;;;;;5103308;27;20557;-81
2023/05/02 05:59:14;;;;;;;1.50;1.03;;;11.90;98.20;;;;;;5113559;27;20510;-81
2023/05/02 06:08:21;;;;;;;1.50;1.10;;;12.00;98.20;;;;;;5105575;23;20535;-84
2023/05/02 06:13:38;;;;;;;1.50;1.10;;;12.00;98.20;;;;;;5018789;28;20465;-81
2023/05/02 06:16:46;;;;;;;1.50;1.10;;;12.00;98.20;;;;;;5004443;28;20476;-84
2023/05/02 06:19:14;;;;;;;1.50;1.00;;;12.00;98.20;;;;;;5022765;28;20473;-84
2023/05/02 06:21:50;;;;;;;1.50;1.10;;;12.00;98.20;;;;;;4998496;28;20508;-84
2023/05/02 06:24:36;;;;;;;1.50;1.10;;;12.00;98.20;;;;;;5011051;28;20495;-84
2023/05/02 06:27:13;;;;;;;1.50;1.10;;;12.00;98.20;;;;;;5001350;28;20483;-84
2023/05/02 06:29:41;;;;;;;1.50;1.10;;;12.00;98.20;;;;;;5005552;28;20524;-84
2023/05/02 06:32:18;;;;;;;1.50;1.10;;;12.00;98.20;;;;;;5008742;28;20542;-84
2023/05/02 06:34:45;;;;;;;1.50;1.10;;;12.00;98.20;;;;;;5026666;28;20528;-81
2023/05/02 06:37:12;;;;;;;1.50;1.00;;;12.00;98.20;;;;;;5001141;28;20547;-81
2023/05/02 06:39:39;;;;;;;1.50;1.10;;;12.10;98.20;;;;;;5013409;28;20638;-81
2023/05/02 06:42:06;;;;;;;1.50;1.00;;;12.10;98.20;;;;;;5014798;28;20482;-81
2023/05/02 06:44:33;;;;;;;1.50;1.00;;;12.10;98.20;;;;;;5030761;28;20464;-81
2023/05/02 06:47:01;;;;;;;1.50;1.00;;;12.00;98.20;;;;;;5002628;28;20486;-81
2023/05/02 06:49:28;;;;;;;1.50;1.00;;;12.00;98.20;;;;;;5035968;28;20719;-80
2023/05/02 06:51:55;;;;;;;1.50;1.00;;;12.00;98.20;;;;;;4997571;28;20484;-82
2023/05/02 06:54:21;;;;;;;1.50;1.00;;;12.00;98.20;;;;;;5010999;28;20484;-81
2023/05/02 06:56:48;;;;;;;1.50;1.00;;;12.00;98.20;;;;;;5006654;28;20488;-80
2023/05/02 06:59:16;;;;;;;1.50;1.00;;;12.00;98.20;;;;;;5020591;28;21005;-81
2023/05/02 07:01:44;;;;;;;1.50;1.00;;;12.00;98.20;;;;;;5007521;28;20488;-79
2023/05/02 07:04:12;;;;;;;1.50;1.00;;;12.00;98.20;;;;;;5019379;28;20470;-82
2023/05/02 07:06:39;;;;;;;1.50;1.10;;;12.00;98.20;;;;;;5007271;28;20522;-83
2023/05/02 07:09:06;;;;;;;1.50;1.00;;;12.10;98.20;;;;;;5019486;28;20574;-83
2023/05/02 07:11:33;;;;;;;1.50;1.00;;;12.10;98.20;;;;;;4999725;28;20574;-81
2023/05/02 07:14:00;;;;;;;1.50;1.10;;;12.20;98.20;;;;;;5008704;28;20487;-81
2023/05/02 07:16:26;;;;;;;1.50;1.00;;;12.30;98.20;;;;;;5001788;28;20496;-79
2023/05/02 07:18:53;;;;;;;1.50;1.10;;;12.50;98.20;;;;;;4993721;28;21000;-80
2023/05/02 07:21:21;;;;;;;2.47;2.27;;;12.50;98.20;;;;;;4998265;28;21060;-80
2023/05/02 07:23:48;;;;;;;1.50;1.00;;;12.60;98.20;;;;;;5010815;28;20535;-80
2023/05/02 07:26:17;;;;;;;1.50;1.10;;;12.60;98.20;;;;;;5006394;28;20486;-80
2023/05/02 07:28:45;;;;;;;1.50;1.10;;;12.60;98.20;;;;;;5012897;28;20612;-78
2023/05/02 07:31:12;;;;;;;1.50;1.00;;;12.60;98.20;;;;;;5003421;28;20479;-82
2023/05/02 07:33:48;;;;;;;1.50;1.10;;;12.60;98.20;;;;;;5010450;28;20513;-81
2023/05/02 07:36:15;;;;;;;1.50;1.10;;;12.70;98.20;;;;;;5003516;28;20479;-80
2023/05/02 07:38:43;;;;;;;1.50;1.10;;;12.70;98.20;;;;;;5006727;28;20490;-80
2023/05/02 07:41:09;;;;;;;1.50;1.00;;;12.80;98.20;;;;;;4993951;28;20576;-79
2023/05/02 07:43:36;;;;;;;1.50;1.00;;;12.80;98.20;;;;;;5007717;28;20456;-79
2023/05/02 07:46:06;;;;;;;1.50;1.10;;;12.80;98.20;;;;;;4999724;28;20457;-81
2023/05/02 07:48:33;;;;;;;1.50;1.00;;;12.90;98.20;;;;;;5005720;28;20481;-79
2023/05/02 07:51:06;;;;;;;1.50;1.10;;;12.80;98.20;;;;;;4998256;28;20468;-79
2023/05/02 07:53:33;;;;;;;1.50;1.10;;;12.80;98.20;;;;;;5014129;28;20723;-80
2023/05/02 07:56:03;;;;;;;1.50;1.00;;;12.90;98.20;;;;;;5006818;28;20485;-81
2023/05/02 07:58:30;;;;;;;1.50;1.00;;;12.80;98.20;;;;;;5012502;28;20492;-81
2023/05/02 08:00:57;;;;;;;1.50;1.07;;;12.90;98.20;;;;;;5005454;28;20468;-81
2023/05/02 08:03:24;;;;;;;1.50;1.10;;;12.90;98.20;;;;;;5005948;28;20482;-80
2023/05/02 08:05:51;;;;;;;1.50;1.10;;;12.90;98.20;;;;;;5001366;28;20462;-79
2023/05/02 08:08:18;;;;;;;1.50;1.00;;;13.00;98.20;;;;;;5012032;28;20499;-79
2023/05/02 08:10:45;;;;;;;1.50;1.00;;;13.10;98.20;;;;;;5013584;28;20487;-79
2023/05/02 08:13:13;;;;;;;1.50;1.00;;;13.10;98.20;;;;;;4980870;28;20509;-78
2023/05/02 08:15:40;;;;;;;1.50;0.90;;;13.20;98.20;;;;;;5010242;28;20507;-78
2023/05/02 08:18:06;;;;;;;1.50;1.00;;;13.20;98.20;;;;;;4998307;28;20482;-78
2023/05/02 08:20:33;;;;;;;1.50;1.00;;;13.30;98.20;;;;;;5011636;28;20460;-79
2023/05/02 08:23:00;;;;;;;1.50;1.00;;;13.30;98.20;;;;;;5002976;28;20484;-79
2023/05/02 08:25:27;;;;;;;1.50;1.10;;;13.30;98.20;;;;;;5010468;28;20480;-78
2023/05/02 08:27:54;;;;;;;1.47;1.00;;;13.40;98.20;;;;;;4993718;28;20494;-80
2023/05/02 08:30:23;;;;;;;1.50;1.10;;;13.30;98.20;;;;;;5017461;28;20796;-79
2023/05/02 08:32:50;;;;;;;1.50;1.00;;;13.20;98.20;;;;;;5005540;28;20890;-80
2023/05/02 08:35:17;;;;;;;1.50;1.00;;;13.00;98.20;;;;;;5008487;28;20492;-79
2023/05/02 08:37:44;;;;;;;1.50;1.00;;;12.80;98.20;;;;;;5000584;28;20484;-82
2023/05/02 08:40:12;;;;;;;1.50;1.00;;;12.60;98.20;;;;;;5013879;28;20478;-79
2023/05/02 08:42:42;;;;;;;1.50;1.20;;;12.40;98.20;;;;;;4997594;28;21048;-77
2023/05/02 08:45:12;;;;;;;1.50;0.90;;;12.20;98.20;;;;;;5003101;28;20514;-77
2023/05/02 08:47:41;;;;;;;1.47;0.97;;;12.20;98.20;;;;;;4996616;28;20820;-77
2023/05/02 08:50:09;;;;;;;1.47;1.00;;;12.20;98.20;;;;;;5005766;28;20468;-78
2023/05/02 08:52:36;;;;;;;1.50;1.00;;;12.20;98.20;;;;;;4993872;28;20882;-77
2023/05/02 08:55:04;;;;;;;1.50;1.00;;;12.20;98.20;;;;;;5002028;28;20918;-77
2023/05/02 08:57:31;;;;;;;1.50;1.10;;;12.30;98.20;;;;;;5001344;28;20502;-79
2023/05/02 08:59:58;;;;;;;1.50;1.10;;;12.50;98.20;;;;;;5010153;28;20935;-81
2023/05/02 09:02:38;;;;;;;1.47;1.00;;;12.50;98.20;;;;;;5002066;28;20480;-79
2023/05/02 09:05:11;;;;;;;1.50;1.00;;;12.60;98.20;;;;;;5004895;28;20457;-79
2023/05/02 09:07:46;;;;;;;1.50;1.00;;;12.60;98.20;;;;;;5001862;28;20475;-77
2023/05/02 09:10:13;;;;;;;1.50;1.07;;;12.60;98.20;;;;;;5007904;28;20476;-78
2023/05/02 09:12:39;;;;;;;1.50;1.10;;;12.60;98.20;;;;;;5000015;28;20488;-78
2023/05/02 09:15:11;;;;;;;1.50;1.00;;;12.60;98.20;;;;;;5007917;28;20488;-80
2023/05/02 09:17:45;;;;;;;1.50;1.00;;;12.60;98.20;;;;;;4998007;28;20506;-78
2023/05/02 09:20:16;;;;;;;1.47;0.90;;;12.70;98.20;;;;;;5007091;28;20842;-78
2023/05/02 09:22:49;;;;;;;1.47;0.90;;;12.70;98.20;;;;;;4997485;28;20906;-83
2023/05/02 09:25:16;;;;;;;1.50;1.00;;;12.80;98.20;;;;;;5008576;28;20458;-77
2023/05/02 09:27:51;;;;;;;1.50;1.10;;;12.80;98.20;;;;;;5000684;28;20720;-78
2023/05/02 09:30:20;;;;;;;1.50;1.00;;;12.70;98.20;;;;;;5009819;28;20502;-78
2023/05/02 09:32:49;;;;;;;1.50;1.00;;;12.70;98.20;;;;;;4998795;28;20500;-78
2023/05/02 09:35:22;;;;;;;1.50;1.00;;;12.70;98.20;;;;;;5007987;28;20520;-79
2023/05/02 09:37:50;;;;;;;1.50;1.03;;;12.80;98.20;;;;;;5001108;28;20493;-80
2023/05/02 09:40:18;;;;;;;1.43;0.90;;;12.90;98.20;;;;;;5008681;28;20845;-79
2023/05/02 09:42:47;;;;;;;1.50;1.10;;;13.20;98.20;;;;;;5001595;28;20480;-78
2023/05/02 09:45:22;;;;;;;1.50;1.00;;;13.50;98.20;;;;;;5009678;28;20953;-77
2023/05/02 09:47:49;;;;;;;1.50;0.90;;;13.70;98.20;;;;;;4991918;28;20538;-77
2023/05/02 09:50:35;;;;;;;1.43;0.90;;;14.10;98.20;;;;;;5006702;28;20456;-79
2023/05/02 09:53:04;;;;;;;1.50;1.00;;;14.50;98.20;;;;;;4999376;28;21056;-78
2023/05/02 09:55:31;;;;;;;1.50;1.00;;;14.70;98.20;;;;;;5009382;28;20785;-78
2023/05/02 09:57:58;;;;;;;1.50;1.03;;;14.80;97.20;;;;;;4991707;28;20496;-78
2023/05/02 10:00:38;;;;;;;3.60;1.80;;;14.80;97.90;;;;;;5007537;28;20463;-78
2023/05/02 10:03:07;;;;;;;1.50;1.00;;;14.80;98.20;;;;;;4978623;28;20489;-78
2023/05/02 10:05:37;;;;;;;1.50;1.00;;;14.70;98.20;;;;;;5004996;28;20495;-78
2023/05/02 10:08:05;;;;;;;1.50;1.00;;;14.50;98.20;;;;;;4992288;28;20485;-78
2023/05/02 10:10:33;;;;;;;1.50;0.90;;;14.20;97.70;;;;;;5008001;28;20472;-79
2023/05/02 10:13:01;;;;;;;1.50;1.00;;;14.00;98.20;;;;;;5008973;28;20484;-77
2023/05/02 10:15:30;;;;;;;1.43;0.93;;;14.00;98.20;;;;;;5003336;28;20564;-79
2023/05/02 10:17:58;;;;;;;1.50;1.00;;;14.00;98.20;;;;;;4993977;28;20829;-78
2023/05/02 10:20:32;;;;;;;1.50;0.90;;;13.90;98.20;;;;;;5007955;28;20483;-78
2023/05/02 10:23:01;;;;;;;1.50;0.97;;;13.90;98.20;;;;;;4992062;28;20527;-76
2023/05/02 10:25:29;;;;;;;1.50;1.00;;;13.90;98.20;;;;;;5007194;28;20460;-78
2023/05/02 10:27:58;;;;;;;1.40;0.90;;;14.00;97.50;;;;;;4998530;28;20886;-78
2023/05/02 10:30:25;;;;;;;1.50;1.00;;;14.00;98.00;;;;;;5005983;28;20468;-78
2023/05/02 10:32:54;;;;;;;1.50;1.00;;;14.10;98.20;;;;;;4993429;28;20480;-80
2023/05/02 10:35:23;;;;;;;1.50;1.00;;;14.20;98.00;;;;;;5016707;28;20537;-82
2023/05/02 10:37:50;;;;;;;1.47;1.00;;;14.30;98.20;;;;;;5000902;28;20561;-81
2023/05/02 10:40:19;;;;;;;1.50;1.00;;;14.30;97.40;;;;;;5009438;28;20464;-80
2023/05/02 10:42:50;;;;;;;1.50;0.90;;;14.40;97.80;;;;;;4995611;28;21056;-77
2023/05/02 10:45:31;;;;;;;1.47;0.90;;;14.50;96.50;;;;;;5005754;28;20514;-76
2023/05/02 10:48:13;;;;;;;1.50;1.00;;;14.60;95.70;;;;;;4991903;28;20503;-77
2023/05/02 10:50:46;;;;;;;1.50;1.00;;;14.70;96.00;;;;;;5002271;28;20525;-78
2023/05/02 10:53:42;;;;;;;2.83;2.60;;;14.90;95.50;;;;;;4975701;28;20600;-77
2023/05/02 10:56:16;;;;;;;1.50;0.90;;;15.00;93.90;;;;;;4991000;28;20626;-78
2023/05/02 10:58:44;;;;;;;1.50;1.00;;;15.00;94.30;;;;;;4999259;28;20477;-79
2023/05/02 11:01:38;;;;;;;1.50;1.00;;;15.10;93.50;;;;;;4991789;28;21054;-78
2023/05/02 11:04:10;;;;;;;1.50;1.00;;;15.10;91.80;;;;;;4996525;28;20461;-81
2023/05/02 11:06:52;;;;;;;1.50;0.90;;;15.30;93.10;;;;;;4999806;28;20480;-78
2023/05/02 11:09:35;;;;;;;1.47;0.90;;;15.40;90.90;;;;;;5002537;28;20489;-78
2023/05/02 11:12:07;;;;;;;1.50;0.97;;;15.60;90.40;;;;;;4997681;28;20495;-79
2023/05/02 11:14:47;;;;;;;1.50;1.00;;;15.80;91.70;;;;;;5007299;28;20481;-78
2023/05/02 11:17:14;;;;;;;1.50;1.00;;;16.10;89.20;;;;;;4992025;28;20483;-76
2023/05/02 11:20:26;;;;;;;1.50;1.00;;;16.30;88.40;;;;;;5000149;28;20488;-77
2023/05/02 11:22:54;;;;;;;1.50;0.97;;;16.20;89.50;;;;;;4987825;28;20480;-77
2023/05/02 11:25:32;;;;;;;1.50;1.00;;;16.50;89.20;;;;;;4996525;28;20681;-77
2023/05/02 11:28:01;;;;;;;1.50;0.90;;;16.60;88.70;;;;;;4978356;28;20497;-78
2023/05/02 11:30:47;;;;;;;1.50;0.90;;;16.50;87.20;;;;;;5017955;28;20460;-78
2023/05/02 11:33:18;;;;;;;1.50;0.90;;;16.30;89.10;;;;;;4994687;28;20536;-78
2023/05/02 11:35:47;;;;;;;1.50;0.90;;;16.10;88.60;;;;;;5015699;28;20556;-78
2023/05/02 11:38:16;;;;;;;1.47;0.90;;;15.90;87.80;;;;;;5007582;28;20669;-79
2023/05/02 11:40:54;;;;;;;1.53;1.10;;;15.70;88.60;;;;;;5007748;28;20772;-78
2023/05/02 11:43:25;;;;;;;1.47;0.90;;;15.60;89.30;;;;;;4978323;28;20480;-78
2023/05/02 11:45:52;;;;;;;1.50;1.00;;;15.60;88.40;;;;;;4998557;28;20507;-78
2023/05/02 11:48:21;;;;;;;1.50;1.10;;;15.60;89.80;;;;;;5007433;28;20492;-81
2023/05/02 11:50:49;;;;;;;1.50;0.97;;;15.60;88.70;;;;;;5001347;28;20609;-78
2023/05/02 11:53:18;;;;;;;1.50;0.90;;;16.00;89.60;;;;;;5001442;28;20705;-78
2023/05/02 11:55:46;;;;;;;1.47;0.90;;;16.20;87.50;;;;;;5015054;28;20488;-79
2023/05/02 11:58:14;;;;;;;1.50;0.90;;;16.20;86.70;;;;;;4989585;28;20495;-78
2023/05/02 12:00:46;;;;;;;1.50;1.00;;;16.40;86.70;;;;;;5022806;28;20466;-77
2023/05/02 12:03:24;;;;;;;1.50;1.00;;;16.80;86.80;;;;;;4988989;28;20469;-76
2023/05/02 12:05:52;;;;;;;1.50;0.90;;;17.20;86.00;;;;;;4999590;28;20466;-77
2023/05/02 12:08:24;;;;;;;1.50;0.93;;;17.30;83.00;;;;;;5033809;28;20526;-77
2023/05/02 12:10:53;;;;;;;1.50;0.90;;;17.20;83.20;;;;;;5002197;28;20456;-79
2023/05/02 12:13:21;;;;;;;1.50;1.00;;;17.00;83.50;;;;;;5050744;28;20469;-80
2023/05/02 12:15:52;;;;;;;1.50;0.90;;;16.90;83.30;;;;;;4999050;28;21004;-77
2023/05/02 12:18:22;;;;;;;1.50;0.90;;;16.90;84.50;;;;;;5003163;28;20512;-80
2023/05/02 12:20:50;;;;;;;1.50;1.00;;;16.90;84.70;;;;;;4994835;28;20670;-78
2023/05/02 12:23:17;;;;;;;1.50;0.90;;;17.00;82.90;;;;;;5032815;28;20457;-82
2023/05/02 12:25:44;;;;;;;1.50;0.90;;;17.00;83.50;;;;;;5010063;28;20563;-78
2023/05/02 12:28:11;;;;;;;1.50;0.90;;;17.00;84.40;;;;;;4984119;28;20495;-78
2023/05/02 12:30:40;;;;;;;1.47;0.90;;;16.90;83.90;;;;;;5010240;28;20461;-79
2023/05/02 12:33:08;;;;;;;1.50;0.90;;;16.80;82.40;;;;;;4972232;28;20554;-79
2023/05/02 12:35:36;;;;;;;1.47;0.90;;;16.80;83.70;;;;;;5010951;28;21083;-79
2023/05/02 12:38:14;;;;;;;1.47;0.90;;;16.90;84.10;;;;;;4995124;28;20585;-78
2023/05/02 12:40:51;;;;;;;1.50;0.90;;;17.00;82.80;;;;;;5009702;28;21348;-78
2023/05/02 12:43:18;;;;;;;1.47;0.90;;;17.10;83.10;;;;;;4989401;28;20519;-80
2023/05/02 12:45:48;;;;;;;1.50;1.00;;;17.10;81.40;;;;;;5015686;28;20456;-79
2023/05/02 12:48:22;;;;;;;1.50;1.00;;;16.90;81.20;;;;;;4985708;28;20523;-80
2023/05/02 12:50:49;;;;;;;1.47;0.90;;;16.90;82.10;;;;;;4999594;28;20480;-79
2023/05/02 12:53:16;;;;;;;1.50;0.90;;;17.10;82.10;;;;;;4994395;28;20460;-80
2023/05/02 12:55:43;;;;;;;1.50;0.90;;;17.60;81.10;;;;;;5013067;28;20841;-81
2023/05/02 12:58:12;;;;;;;1.50;0.90;;;18.00;80.30;;;;;;4986792;28;20483;-80
2023/05/02 13:00:40;;;;;;;1.50;1.00;;;18.40;78.20;;;;;;5031595;28;20967;-78
2023/05/02 13:03:07;;;;;;;1.50;0.90;;;18.50;78.20;;;;;;4989496;28;20555;-80
2023/05/02 13:05:36;;;;;;;1.43;0.90;;;18.40;77.60;;;;;;5015480;28;20751;-79
2023/05/02 13:08:03;;;;;;;1.50;0.93;;;18.30;78.30;;;;;;5002740;28;20518;-81
2023/05/02 13:10:30;;;;;;;1.47;0.90;;;18.10;78.20;;;;;;5023912;28;20607;-80